createdAt,value
2017-11-04T00:00:39.659Z,1008.64
2017-11-04T00:01:39.654Z,1008.57
2017-11-04T00:02:39.647Z,1008.56
2017-11-04T00:03:39.640Z,1008.54
2017-11-04T00:04:39.638Z,1008.56
2017-11-04T00:05:39.632Z,1008.54
2017-11-04T00:06:39.625Z,1008.58
2017-11-04T00:07:39.616Z,1008.49
2017-11-04T00:08:39.613Z,1008.47
2017-11-04T00:09:39.605Z,1008.50
2017-11-04T00:10:39.597Z,1008.42
2017-11-04T00:11:39.592Z,1008.45
2017-11-04T00:12:39.581Z,1008.38
2017-11-04T00:13:39.575Z,1008.38
2017-11-04T00:14:39.568Z,1008.39
2017-11-04T00:15:39.559Z,1008.39
2017-11-04T00:16:39.553Z,1008.37
2017-11-04T00:17:39.549Z,1008.35
2017-11-04T00:18:39.542Z,1008.34
2017-11-04T00:19:39.535Z,1008.33
2017-11-04T00:20:39.532Z,1008.33
2017-11-04T00:21:39.529Z,1008.28
2017-11-04T00:22:39.520Z,1008.30
2017-11-04T00:23:39.512Z,1008.31
2017-11-04T00:24:39.508Z,1008.31
2017-11-04T00:25:39.498Z,1008.25
2017-11-04T00:26:39.492Z,1008.21
2017-11-04T00:27:39.491Z,1008.29
2017-11-04T00:28:39.475Z,1008.27
2017-11-04T00:29:39.468Z,1008.28
2017-11-04T00:30:39.463Z,1008.26
2017-11-04T00:31:39.454Z,1008.29
2017-11-04T00:32:39.453Z,1008.27
2017-11-04T00:33:39.445Z,1008.25
2017-11-04T00:34:39.440Z,1008.24
2017-11-04T00:35:39.433Z,1008.22
2017-11-04T00:36:39.422Z,1008.18
2017-11-04T00:37:39.416Z,1008.19
2017-11-04T00:38:39.409Z,1008.17
2017-11-04T00:39:39.403Z,1008.13
2017-11-04T00:40:39.402Z,1008.14
2017-11-04T00:41:39.390Z,1008.09
2017-11-04T00:42:39.384Z,1008.11
2017-11-04T00:43:39.375Z,1008.10
2017-11-04T00:44:39.374Z,1008.08
2017-11-04T00:45:39.367Z,1008.11
2017-11-04T00:46:39.361Z,1008.10
2017-11-04T00:47:39.354Z,1008.07
2017-11-04T00:48:39.349Z,1008.06
2017-11-04T00:49:39.342Z,1008.06
2017-11-04T00:50:39.335Z,1008.07
2017-11-04T00:51:39.329Z,1008.12
2017-11-04T00:52:39.318Z,1008.07
2017-11-04T00:53:39.312Z,1008.02
2017-11-04T00:54:39.311Z,1008.00
2017-11-04T00:55:39.303Z,1008.09
2017-11-04T00:56:39.291Z,1008.01
2017-11-04T00:57:39.285Z,1008.00
2017-11-04T00:58:39.278Z,1008.01
2017-11-04T00:59:39.274Z,1008.07
2017-11-04T01:00:39.271Z,1007.99
2017-11-04T01:01:39.265Z,1008.01
2017-11-04T01:02:39.258Z,1007.95
2017-11-04T01:03:39.248Z,1008.00
2017-11-04T01:04:39.244Z,1007.94
2017-11-04T01:05:39.237Z,1008.02
2017-11-04T01:06:39.231Z,1007.92
2017-11-04T01:07:39.224Z,1007.96
2017-11-04T01:08:39.214Z,1007.96
2017-11-04T01:09:39.206Z,1007.97
2017-11-04T01:10:39.202Z,1007.97
2017-11-04T01:11:39.194Z,1007.97
2017-11-04T01:12:39.186Z,1007.90
2017-11-04T01:13:39.182Z,1007.88
2017-11-04T01:14:39.178Z,1007.92
2017-11-04T01:15:39.170Z,1007.89
2017-11-04T01:16:39.165Z,1007.89
2017-11-04T01:17:39.160Z,1007.88
2017-11-04T01:18:39.153Z,1007.85
2017-11-04T01:19:39.147Z,1007.86
2017-11-04T01:20:39.145Z,1007.88
2017-11-04T01:21:39.132Z,1007.80
2017-11-04T01:22:39.128Z,1007.80
2017-11-04T01:23:39.120Z,1007.82
2017-11-04T01:24:39.109Z,1007.75
2017-11-04T01:25:39.103Z,1007.79
2017-11-04T01:26:39.096Z,1007.74
2017-11-04T01:27:39.090Z,1007.75
2017-11-04T01:28:39.083Z,1007.71
2017-11-04T01:29:39.077Z,1007.75
2017-11-04T01:30:39.069Z,1007.66
2017-11-04T01:31:39.062Z,1007.68
2017-11-04T01:32:39.061Z,1007.68
2017-11-04T01:33:39.055Z,1007.67
2017-11-04T01:34:39.047Z,1007.65
2017-11-04T01:35:39.041Z,1007.67
2017-11-04T01:36:39.031Z,1007.62
2017-11-04T01:37:39.025Z,1007.60
2017-11-04T01:38:39.018Z,1007.63
2017-11-04T01:39:39.010Z,1007.63
2017-11-04T01:40:39.009Z,1007.56
2017-11-04T01:41:39.002Z,1007.57
2017-11-04T01:42:38.998Z,1007.50
2017-11-04T01:43:38.988Z,1007.48
2017-11-04T01:44:38.982Z,1007.50
2017-11-04T01:45:38.976Z,1007.47
2017-11-04T01:46:38.969Z,1007.48
2017-11-04T01:47:38.966Z,1007.46
2017-11-04T01:48:38.951Z,1007.37
2017-11-04T01:49:38.945Z,1007.36
2017-11-04T01:50:38.940Z,1007.32
2017-11-04T01:51:38.938Z,1007.32
2017-11-04T01:52:38.925Z,1007.29
2017-11-04T01:53:38.920Z,1007.35
2017-11-04T01:54:38.913Z,1007.32
2017-11-04T01:55:38.906Z,1007.29
2017-11-04T01:56:38.905Z,1007.29
2017-11-04T01:57:38.897Z,1007.26
2017-11-04T01:58:38.891Z,1007.24
2017-11-04T01:59:38.882Z,1007.27
2017-11-04T02:00:38.877Z,1007.28
2017-11-04T02:01:38.873Z,1007.26
2017-11-04T02:02:38.865Z,1007.21
2017-11-04T02:03:38.858Z,1007.28
2017-11-04T02:04:38.846Z,1007.20
2017-11-04T02:05:38.839Z,1007.16
2017-11-04T02:06:38.833Z,1007.14
2017-11-04T02:07:38.827Z,1007.23
2017-11-04T02:08:38.820Z,1007.22
2017-11-04T02:09:38.813Z,1007.19
2017-11-04T02:10:38.808Z,1007.17
2017-11-04T02:11:38.801Z,1007.20
2017-11-04T02:12:38.797Z,1007.10
2017-11-04T02:13:38.791Z,1007.13
2017-11-04T02:14:38.785Z,1007.09
2017-11-04T02:15:38.778Z,1007.10
2017-11-04T02:16:38.773Z,1007.10
2017-11-04T02:17:38.766Z,1007.10
2017-11-04T02:18:38.758Z,1007.12
2017-11-04T02:19:38.753Z,1007.07
2017-11-04T02:20:38.742Z,1007.07
2017-11-04T02:21:38.735Z,1007.01
2017-11-04T02:22:38.729Z,1007.01
2017-11-04T02:23:38.721Z,1007.03
2017-11-04T02:24:38.714Z,1006.95
2017-11-04T02:25:38.709Z,1006.93
2017-11-04T02:26:38.701Z,1006.90
2017-11-04T02:27:38.695Z,1006.91
2017-11-04T02:28:38.693Z,1006.87
2017-11-04T02:29:38.685Z,1006.88
2017-11-04T02:30:38.678Z,1006.83
2017-11-04T02:31:38.673Z,1006.85
2017-11-04T02:32:38.666Z,1006.84
2017-11-04T02:33:38.660Z,1006.83
2017-11-04T02:34:38.654Z,1006.84
2017-11-04T02:35:38.646Z,1006.80
2017-11-04T02:36:38.634Z,1006.80
2017-11-04T02:37:38.629Z,1006.76
2017-11-04T02:38:38.623Z,1006.70
2017-11-04T02:39:38.614Z,1006.63
2017-11-04T02:40:38.613Z,1006.66
2017-11-04T02:41:38.605Z,1006.58
2017-11-04T02:42:38.601Z,1006.56
2017-11-04T02:43:38.592Z,1006.64
2017-11-04T02:44:38.591Z,1006.65
2017-11-04T02:45:38.576Z,1006.62
2017-11-04T02:46:38.570Z,1006.63
2017-11-04T02:47:38.562Z,1006.63
2017-11-04T02:48:38.556Z,1006.60
2017-11-04T02:49:38.548Z,1006.67
2017-11-04T02:50:38.543Z,1006.62
2017-11-04T02:51:38.535Z,1006.65
2017-11-04T02:52:38.532Z,1006.66
2017-11-04T02:53:38.527Z,1006.66
2017-11-04T02:54:38.520Z,1006.65
2017-11-04T02:55:38.515Z,1006.67
2017-11-04T02:56:38.506Z,1006.65
2017-11-04T02:57:38.501Z,1006.70
2017-11-04T02:58:38.493Z,1006.69
2017-11-04T02:59:38.487Z,1006.66
2017-11-04T03:00:38.477Z,1006.67
2017-11-04T03:01:38.470Z,1006.66
2017-11-04T03:02:38.463Z,1006.74
2017-11-04T03:03:38.456Z,1006.67
2017-11-04T03:04:38.450Z,1006.69
2017-11-04T03:05:38.443Z,1006.67
2017-11-04T03:06:38.437Z,1006.62
2017-11-04T03:07:38.429Z,1006.62
2017-11-04T03:08:38.428Z,1006.60
2017-11-04T03:09:38.420Z,1006.60
2017-11-04T03:10:38.416Z,1006.51
2017-11-04T03:11:38.406Z,1006.62
2017-11-04T03:12:38.403Z,1006.65
2017-11-04T03:13:38.394Z,1006.60
2017-11-04T03:14:38.388Z,1006.55
2017-11-04T03:15:38.380Z,1006.58
2017-11-04T03:16:38.371Z,1006.60
2017-11-04T03:17:38.363Z,1006.55
2017-11-04T03:18:38.356Z,1006.56
2017-11-04T03:19:38.353Z,1006.52
2017-11-04T03:20:38.342Z,1006.47
2017-11-04T03:21:38.336Z,1006.46
2017-11-04T03:22:38.329Z,1006.41
2017-11-04T03:23:38.322Z,1006.42
2017-11-04T03:24:38.325Z,1006.42
2017-11-04T03:25:38.314Z,1006.42
2017-11-04T03:26:38.307Z,1006.45
2017-11-04T03:27:38.299Z,1006.48
2017-11-04T03:28:38.298Z,1006.41
2017-11-04T03:29:38.287Z,1006.44
2017-11-04T03:30:38.282Z,1006.43
2017-11-04T03:31:38.274Z,1006.37
2017-11-04T03:32:38.263Z,1006.43
2017-11-04T03:33:38.256Z,1006.42
2017-11-04T03:34:38.251Z,1006.40
2017-11-04T03:35:38.243Z,1006.43
2017-11-04T03:36:38.237Z,1006.41
2017-11-04T03:37:38.230Z,1006.39
2017-11-04T03:38:38.225Z,1006.37
2017-11-04T03:39:38.216Z,1006.38
2017-11-04T03:40:38.214Z,1006.40
2017-11-04T03:41:38.212Z,1006.49
2017-11-04T03:42:38.200Z,1006.47
2017-11-04T03:43:38.200Z,1006.35
2017-11-04T03:44:38.183Z,1006.37
2017-11-04T03:45:38.178Z,1006.35
2017-11-04T03:46:38.170Z,1006.41
2017-11-04T03:47:38.162Z,1006.38
2017-11-04T03:48:38.160Z,1006.45
2017-11-04T03:49:38.155Z,1006.43
2017-11-04T03:50:38.148Z,1006.35
2017-11-04T03:51:38.139Z,1006.30
2017-11-04T03:52:38.137Z,1006.30
2017-11-04T03:53:38.128Z,1006.29
2017-11-04T03:54:38.120Z,1006.33
2017-11-04T03:55:38.114Z,1006.29
2017-11-04T03:56:38.103Z,1006.27
2017-11-04T03:57:38.096Z,1006.23
2017-11-04T03:58:38.090Z,1006.23
2017-11-04T03:59:38.083Z,1006.26
2017-11-04T04:00:38.076Z,1006.28
2017-11-04T04:01:38.071Z,1006.26
2017-11-04T04:02:38.064Z,1006.22
2017-11-04T04:03:38.055Z,1006.25
2017-11-04T04:04:38.053Z,1006.27
2017-11-04T04:05:38.048Z,1006.25
2017-11-04T04:06:38.041Z,1006.25
2017-11-04T04:07:38.034Z,1006.25
2017-11-04T04:08:38.028Z,1006.24
2017-11-04T04:09:38.019Z,1006.29
2017-11-04T04:10:38.013Z,1006.28
2017-11-04T04:11:38.005Z,1006.24
2017-11-04T04:12:37.995Z,1006.19
2017-11-04T04:13:37.988Z,1006.20
2017-11-04T04:14:37.982Z,1006.19
2017-11-04T04:15:38.006Z,1006.24
2017-11-04T04:16:37.967Z,1006.21
2017-11-04T04:17:37.966Z,1006.17
2017-11-04T04:18:37.955Z,1006.20
2017-11-04T04:19:37.948Z,1006.17
2017-11-04T04:20:37.944Z,1006.20
2017-11-04T04:21:37.937Z,1006.17
2017-11-04T04:22:37.932Z,1006.14
2017-11-04T04:23:37.924Z,1006.05
2017-11-04T04:24:37.918Z,1006.07
2017-11-04T04:25:37.911Z,1006.04
2017-11-04T04:26:37.903Z,1006.03
2017-11-04T04:27:37.897Z,1006.09
2017-11-04T04:28:37.886Z,1006.02
2017-11-04T04:29:37.880Z,1006.04
2017-11-04T04:30:37.872Z,1006.02
2017-11-04T04:31:37.868Z,1005.99
2017-11-04T04:32:37.862Z,1006.02
2017-11-04T04:33:37.852Z,1005.97
2017-11-04T04:34:37.846Z,1005.97
2017-11-04T04:35:37.839Z,1005.97
2017-11-04T04:36:37.836Z,1005.93
2017-11-04T04:37:37.829Z,1005.92
2017-11-04T04:38:37.823Z,1005.92
2017-11-04T04:39:37.815Z,1005.89
2017-11-04T04:40:37.807Z,1005.88
2017-11-04T04:41:37.804Z,1005.84
2017-11-04T04:42:37.796Z,1005.88
2017-11-04T04:43:37.787Z,1005.86
2017-11-04T04:44:37.778Z,1005.81
2017-11-04T04:45:37.770Z,1005.76
2017-11-04T04:46:37.764Z,1005.77
2017-11-04T04:47:37.756Z,1005.74
2017-11-04T04:48:37.754Z,1005.74
2017-11-04T04:49:37.747Z,1005.68
2017-11-04T04:50:37.740Z,1005.69
2017-11-04T04:51:37.734Z,1005.64
2017-11-04T04:52:37.722Z,1005.68
2017-11-04T04:53:37.716Z,1005.62
2017-11-04T04:54:37.709Z,1005.63
2017-11-04T04:55:37.701Z,1005.60
2017-11-04T04:56:37.696Z,1005.61
2017-11-04T04:57:37.689Z,1005.62
2017-11-04T04:58:37.682Z,1005.59
2017-11-04T04:59:37.675Z,1005.60
2017-11-04T05:00:37.673Z,1005.61
2017-11-04T05:01:37.666Z,1005.63
2017-11-04T05:02:37.660Z,1005.61
2017-11-04T05:03:37.652Z,1005.59
2017-11-04T05:04:37.645Z,1005.56
2017-11-04T05:05:37.640Z,1005.57
2017-11-04T05:06:37.633Z,1005.57
2017-11-04T05:07:37.624Z,1005.57
2017-11-04T05:08:37.614Z,1005.56
2017-11-04T05:09:37.607Z,1005.51
2017-11-04T05:10:37.601Z,1005.53
2017-11-04T05:11:37.595Z,1005.52
2017-11-04T05:12:37.587Z,1005.53
2017-11-04T05:13:37.588Z,1005.54
2017-11-04T05:14:37.575Z,1005.49
2017-11-04T05:15:37.568Z,1005.55
2017-11-04T05:16:37.565Z,1005.54
2017-11-04T05:17:37.560Z,1005.57
2017-11-04T05:18:37.553Z,1005.53
2017-11-04T05:19:37.545Z,1005.56
2017-11-04T05:20:37.540Z,1005.54
2017-11-04T05:21:37.534Z,1005.46
2017-11-04T05:22:37.527Z,1005.45
2017-11-04T05:23:37.518Z,1005.50
2017-11-04T05:24:37.509Z,1005.44
2017-11-04T05:25:37.502Z,1005.42
2017-11-04T05:26:37.497Z,1005.49
2017-11-04T05:27:37.489Z,1005.51
2017-11-04T05:28:37.484Z,1005.49
2017-11-04T05:29:37.480Z,1005.46
2017-11-04T05:30:37.471Z,1005.48
2017-11-04T05:31:37.463Z,1005.45
2017-11-04T05:32:37.460Z,1005.44
2017-11-04T05:33:37.456Z,1005.38
2017-11-04T05:34:37.448Z,1005.43
2017-11-04T05:35:37.442Z,1005.42
2017-11-04T05:36:37.436Z,1005.41
2017-11-04T05:37:37.430Z,1005.47
2017-11-04T05:38:37.423Z,1005.47
2017-11-04T05:39:37.416Z,1005.44
2017-11-04T05:40:37.406Z,1005.31
2017-11-04T05:41:37.400Z,1005.12
2017-11-04T05:42:37.394Z,1005.03
2017-11-04T05:43:37.385Z,1005.14
2017-11-04T05:44:37.381Z,1005.22
2017-11-04T05:45:37.374Z,1005.17
2017-11-04T05:46:37.367Z,1005.20
2017-11-04T05:47:37.361Z,1005.22
2017-11-04T05:48:37.359Z,1005.10
2017-11-04T05:49:37.352Z,1005.07
2017-11-04T05:50:37.346Z,1005.13
2017-11-04T05:51:37.340Z,1005.07
2017-11-04T05:52:37.333Z,1005.11
2017-11-04T05:53:37.327Z,1005.06
2017-11-04T05:54:37.321Z,1005.04
2017-11-04T05:55:37.313Z,1005.00
2017-11-04T05:56:37.304Z,1005.02
2017-11-04T05:57:37.297Z,1005.01
2017-11-04T05:58:37.299Z,1005.03
2017-11-04T05:59:37.283Z,1005.05
2017-11-04T06:00:37.278Z,1005.01
2017-11-04T06:01:37.272Z,1004.98
2017-11-04T06:02:37.265Z,1004.98
2017-11-04T06:03:37.258Z,1004.94
2017-11-04T06:04:37.258Z,1004.99
2017-11-04T06:05:37.252Z,1005.01
2017-11-04T06:06:37.243Z,1005.03
2017-11-04T06:07:37.237Z,1004.97
2017-11-04T06:08:37.232Z,1004.95
2017-11-04T06:09:37.224Z,1004.91
2017-11-04T06:10:37.219Z,1005.01
2017-11-04T06:11:37.214Z,1005.06
2017-11-04T06:12:37.202Z,1005.03
2017-11-04T06:13:37.196Z,1005.08
2017-11-04T06:14:37.189Z,1005.08
2017-11-04T06:15:37.181Z,1005.01
2017-11-04T06:16:37.175Z,1005.01
2017-11-04T06:17:37.169Z,1005.02
2017-11-04T06:18:37.164Z,1005.00
2017-11-04T06:19:37.157Z,1004.98
2017-11-04T06:20:37.155Z,1005.03
2017-11-04T06:21:37.149Z,1004.97
2017-11-04T06:22:37.142Z,1005.00
2017-11-04T06:23:37.136Z,1004.97
2017-11-04T06:24:37.129Z,1004.98
2017-11-04T06:25:37.122Z,1004.97
2017-11-04T06:26:37.117Z,1004.98
2017-11-04T06:27:37.109Z,1004.97
2017-11-04T06:28:37.100Z,1005.03
2017-11-04T06:29:37.092Z,1005.01
2017-11-04T06:30:37.087Z,1005.03
2017-11-04T06:31:37.080Z,1005.00
2017-11-04T06:32:37.075Z,1004.96
2017-11-04T06:33:37.068Z,1005.00
2017-11-04T06:34:37.064Z,1005.02
2017-11-04T06:35:37.053Z,1005.04
2017-11-04T06:36:37.051Z,1005.04
2017-11-04T06:37:37.047Z,1005.13
2017-11-04T06:38:37.039Z,1005.11
2017-11-04T06:39:37.032Z,1005.07
2017-11-04T06:40:37.026Z,1005.15
2017-11-04T06:41:37.020Z,1005.16
2017-11-04T06:42:37.015Z,1005.19
2017-11-04T06:43:37.008Z,1005.24
2017-11-04T06:44:36.997Z,1005.21
2017-11-04T06:45:36.991Z,1005.25
2017-11-04T06:46:36.986Z,1005.26
2017-11-04T06:47:36.978Z,1005.30
2017-11-04T06:48:36.974Z,1005.26
2017-11-04T06:49:36.966Z,1005.23
2017-11-04T06:50:36.959Z,1005.26
2017-11-04T06:51:36.953Z,1005.22
2017-11-04T06:52:36.951Z,1005.25
2017-11-04T06:53:36.958Z,1005.24
2017-11-04T06:54:36.938Z,1005.28
2017-11-04T06:55:36.931Z,1005.23
2017-11-04T06:56:36.923Z,1005.30
2017-11-04T06:57:36.916Z,1005.33
2017-11-04T06:58:36.909Z,1005.31
2017-11-04T06:59:36.903Z,1005.31
2017-11-04T07:00:36.901Z,1005.28
2017-11-04T07:01:36.896Z,1005.27
2017-11-04T07:02:36.889Z,1005.31
2017-11-04T07:03:36.884Z,1005.27
2017-11-04T07:04:36.877Z,1005.23
2017-11-04T07:05:36.870Z,1005.19
2017-11-04T07:06:36.865Z,1005.20
2017-11-04T07:07:36.857Z,1005.24
2017-11-04T07:08:36.848Z,1005.27
2017-11-04T07:09:36.841Z,1005.27
2017-11-04T07:10:36.837Z,1005.24
2017-11-04T07:11:36.829Z,1005.21
2017-11-04T07:12:36.825Z,1005.15
2017-11-04T07:13:36.820Z,1005.11
2017-11-04T07:14:36.811Z,1005.13
2017-11-04T07:15:36.803Z,1005.13
2017-11-04T07:16:36.807Z,1005.13
2017-11-04T07:17:36.797Z,1005.06
2017-11-04T07:18:36.791Z,1005.02
2017-11-04T07:19:36.783Z,1004.98
2017-11-04T07:20:36.787Z,1004.93
2017-11-04T07:21:36.771Z,1005.00
2017-11-04T07:22:36.766Z,1005.03
2017-11-04T07:23:36.759Z,1005.02
2017-11-04T07:24:36.748Z,1005.00
2017-11-04T07:25:36.744Z,1004.93
2017-11-04T07:26:36.737Z,1004.87
2017-11-04T07:27:36.731Z,1004.98
2017-11-04T07:28:36.726Z,1004.95
2017-11-04T07:29:36.720Z,1004.99
2017-11-04T07:30:36.714Z,1005.04
2017-11-04T07:31:36.707Z,1005.06
2017-11-04T07:32:36.706Z,1005.09
2017-11-04T07:33:36.701Z,1005.05
2017-11-04T07:34:36.697Z,1005.06
2017-11-04T07:35:36.687Z,1005.06
2017-11-04T07:36:36.691Z,1005.10
2017-11-04T07:37:36.677Z,1005.14
2017-11-04T07:38:36.672Z,1005.15
2017-11-04T07:39:36.665Z,1005.18
2017-11-04T07:40:36.656Z,1005.14
2017-11-04T07:41:36.652Z,1005.23
2017-11-04T07:42:36.645Z,1005.12
2017-11-04T07:43:36.640Z,1005.10
2017-11-04T07:44:36.639Z,1005.08
2017-11-04T07:45:36.634Z,1005.11
2017-11-04T07:46:36.627Z,1005.19
2017-11-04T07:47:36.621Z,1005.16
2017-11-04T07:48:36.621Z,1005.01
2017-11-04T07:49:36.618Z,1005.04
2017-11-04T07:50:36.615Z,1004.95
2017-11-04T07:51:36.609Z,1004.96
2017-11-04T07:52:36.609Z,1004.97
2017-11-04T07:53:36.603Z,1005.05
2017-11-04T07:54:36.601Z,1005.13
2017-11-04T07:55:36.601Z,1005.13
2017-11-04T07:56:36.591Z,1005.27
2017-11-04T07:57:36.587Z,1005.31
2017-11-04T07:58:36.585Z,1005.18
2017-11-04T07:59:36.593Z,1005.18
2017-11-04T08:00:36.583Z,1005.34
2017-11-04T08:01:36.580Z,1005.20
2017-11-04T08:02:36.577Z,1005.33
2017-11-04T08:03:36.574Z,1005.34
2017-11-04T08:04:36.568Z,1005.28
2017-11-04T08:05:36.568Z,1005.08
2017-11-04T08:06:36.566Z,1005.01
2017-11-04T08:07:36.564Z,1005.01
2017-11-04T08:08:36.565Z,1005.06
2017-11-04T08:09:36.560Z,1005.05
2017-11-04T08:10:36.573Z,1005.36
2017-11-04T08:11:36.558Z,1005.21
2017-11-04T08:12:36.559Z,1005.27
2017-11-04T08:13:36.559Z,1005.32
2017-11-04T08:14:36.558Z,1004.96
2017-11-04T08:15:36.557Z,1004.89
2017-11-04T08:16:36.556Z,1004.92
2017-11-04T08:17:36.557Z,1004.91
2017-11-04T08:18:36.554Z,1004.93
2017-11-04T08:19:36.554Z,1004.98
2017-11-04T08:20:36.549Z,1004.95
2017-11-04T08:21:36.592Z,1004.82
2017-11-04T08:22:36.548Z,1004.82
2017-11-04T08:23:36.546Z,1004.83
2017-11-04T08:24:36.546Z,1004.87
2017-11-04T08:25:36.550Z,1004.94
2017-11-04T08:26:36.546Z,1004.87
2017-11-04T08:27:36.546Z,1004.83
2017-11-04T08:28:36.551Z,1004.80
2017-11-04T08:29:36.549Z,1004.80
2017-11-04T08:30:36.550Z,1004.83
2017-11-04T08:31:36.548Z,1004.84
2017-11-04T08:32:36.549Z,1004.74
2017-11-04T08:33:36.549Z,1004.67
2017-11-04T08:34:36.548Z,1004.72
2017-11-04T08:35:36.554Z,1004.70
2017-11-04T08:36:36.546Z,1004.67
2017-11-04T08:37:36.544Z,1004.64
2017-11-04T08:38:36.545Z,1004.68
2017-11-04T08:39:36.545Z,1004.78
2017-11-04T08:40:36.545Z,1004.75
2017-11-04T08:41:36.547Z,1004.75
2017-11-04T08:42:36.547Z,1004.76
2017-11-04T08:43:36.554Z,1004.78
2017-11-04T08:44:36.551Z,1004.81
2017-11-04T08:45:36.551Z,1004.71
2017-11-04T08:46:36.553Z,1004.65
2017-11-04T08:47:36.552Z,1004.71
2017-11-04T08:48:36.556Z,1004.75
2017-11-04T08:49:36.558Z,1004.66
2017-11-04T08:50:36.556Z,1004.62
2017-11-04T08:51:36.556Z,1004.67
2017-11-04T08:52:36.553Z,1004.66
2017-11-04T08:53:36.554Z,1004.60
2017-11-04T08:54:36.555Z,1004.66
2017-11-04T08:55:36.555Z,1004.65
2017-11-04T08:56:36.556Z,1004.67
2017-11-04T08:57:36.557Z,1004.67
2017-11-04T08:58:36.560Z,1004.77
2017-11-04T08:59:36.558Z,1004.74
2017-11-04T09:00:36.567Z,1004.79
2017-11-04T09:01:36.567Z,1004.85
2017-11-04T09:02:36.568Z,1004.82
2017-11-04T09:03:36.570Z,1004.85
2017-11-04T09:04:36.569Z,1004.77
2017-11-04T09:05:36.572Z,1004.80
2017-11-04T09:06:36.573Z,1004.75
2017-11-04T09:07:36.575Z,1004.76
2017-11-04T09:08:36.583Z,1004.77
2017-11-04T09:09:36.585Z,1004.76
2017-11-04T09:10:36.588Z,1004.76
2017-11-04T09:11:36.590Z,1004.77
2017-11-04T09:12:36.592Z,1004.71
2017-11-04T09:13:36.596Z,1004.70
2017-11-04T09:14:36.601Z,1004.69
2017-11-04T09:15:36.602Z,1004.69
2017-11-04T09:16:36.601Z,1004.71
2017-11-04T09:17:36.606Z,1004.71
2017-11-04T09:18:36.607Z,1004.73
2017-11-04T09:19:36.612Z,1004.69
2017-11-04T09:20:36.613Z,1004.76
2017-11-04T09:21:36.620Z,1004.73
2017-11-04T09:22:36.622Z,1004.72
2017-11-04T09:23:36.624Z,1004.77
2017-11-04T09:24:36.633Z,1004.74
2017-11-04T09:25:36.636Z,1004.65
2017-11-04T09:26:36.640Z,1004.50
2017-11-04T09:27:36.644Z,1004.52
2017-11-04T09:28:36.647Z,1004.48
2017-11-04T09:29:36.652Z,1004.48
2017-11-04T09:30:36.654Z,1004.41
2017-11-04T09:31:36.660Z,1004.43
2017-11-04T09:32:36.657Z,1004.39
2017-11-04T09:33:36.660Z,1004.37
2017-11-04T09:34:36.664Z,1004.32
2017-11-04T09:35:36.666Z,1004.32
2017-11-04T09:36:36.684Z,1004.41
2017-11-04T09:37:36.674Z,1004.31
2017-11-04T09:38:36.674Z,1004.26
2017-11-04T09:39:36.677Z,1004.31
2017-11-04T09:40:36.682Z,1004.28
2017-11-04T09:41:36.686Z,1004.25
2017-11-04T09:42:36.688Z,1004.34
2017-11-04T09:43:36.692Z,1004.30
2017-11-04T09:44:36.692Z,1004.31
2017-11-04T09:45:36.696Z,1004.33
2017-11-04T09:46:36.699Z,1004.31
2017-11-04T09:47:36.701Z,1004.32
2017-11-04T09:48:36.700Z,1004.32
2017-11-04T09:49:36.703Z,1004.32
2017-11-04T09:50:36.706Z,1004.19
2017-11-04T09:51:36.710Z,1004.19
2017-11-04T09:52:36.713Z,1004.18
2017-11-04T09:53:36.717Z,1004.27
2017-11-04T09:54:36.721Z,1004.39
2017-11-04T09:55:36.722Z,1004.35
2017-11-04T09:56:36.732Z,1004.41
2017-11-04T09:57:36.738Z,1004.27
2017-11-04T09:58:36.738Z,1004.31
2017-11-04T09:59:36.751Z,1004.29
2017-11-04T10:00:36.749Z,1004.13
2017-11-04T10:01:36.748Z,1004.15
2017-11-04T10:02:36.753Z,1004.06
2017-11-04T10:03:36.824Z,1004.13
2017-11-04T10:04:36.754Z,1004.20
2017-11-04T10:05:36.759Z,1004.36
2017-11-04T10:06:36.803Z,1004.32
2017-11-04T10:07:36.763Z,1004.34
2017-11-04T10:08:36.794Z,1004.39
2017-11-04T10:09:36.777Z,1004.29
2017-11-04T10:10:36.807Z,1004.34
2017-11-04T10:11:36.783Z,1004.31
2017-11-04T10:12:36.783Z,1004.21
2017-11-04T10:13:36.791Z,1004.23
2017-11-04T10:14:36.794Z,1004.27
2017-11-04T10:15:36.799Z,1004.26
2017-11-04T10:16:36.801Z,1004.25
2017-11-04T10:17:36.806Z,1004.21
2017-11-04T10:18:36.813Z,1004.28
2017-11-04T10:19:36.815Z,1004.25
2017-11-04T10:20:36.831Z,1004.22
2017-11-04T10:21:36.830Z,1004.19
2017-11-04T10:22:36.835Z,1004.20
2017-11-04T10:23:36.838Z,1004.12
2017-11-04T10:24:36.843Z,1004.08
2017-11-04T10:25:36.848Z,1004.10
2017-11-04T10:26:36.854Z,1004.11
2017-11-04T10:27:36.857Z,1004.10
2017-11-04T10:28:36.859Z,1003.99
2017-11-04T10:29:36.864Z,1004.03
2017-11-04T10:30:36.869Z,1004.00
2017-11-04T10:31:36.872Z,1003.96
2017-11-04T10:32:36.878Z,1004.03
2017-11-04T10:33:36.884Z,1003.92
2017-11-04T10:34:36.889Z,1003.96
2017-11-04T10:35:36.893Z,1003.92
2017-11-04T10:36:36.902Z,1003.91
2017-11-04T10:37:36.906Z,1003.86
2017-11-04T10:38:36.912Z,1003.82
2017-11-04T10:39:36.917Z,1003.79
2017-11-04T10:40:36.921Z,1003.78
2017-11-04T10:41:36.927Z,1003.77
2017-11-04T10:42:36.933Z,1003.63
2017-11-04T10:43:36.939Z,1003.64
2017-11-04T10:44:36.938Z,1003.61
2017-11-04T10:45:36.944Z,1003.61
2017-11-04T10:46:36.949Z,1003.54
2017-11-04T10:47:36.953Z,1003.44
2017-11-04T10:48:36.961Z,1003.49
2017-11-04T10:49:36.964Z,1003.46
2017-11-04T10:50:36.970Z,1003.50
2017-11-04T10:51:36.973Z,1003.36
2017-11-04T10:52:36.984Z,1003.37
2017-11-04T10:53:36.987Z,1003.47
2017-11-04T10:54:36.993Z,1003.49
2017-11-04T10:55:36.997Z,1003.35
2017-11-04T10:56:37.003Z,1003.38
2017-11-04T10:57:37.005Z,1003.36
2017-11-04T10:58:37.008Z,1003.36
2017-11-04T10:59:37.011Z,1003.29
2017-11-04T11:00:37.011Z,1003.25
2017-11-04T11:01:37.014Z,1003.20
2017-11-04T11:02:37.017Z,1003.15
2017-11-04T11:03:37.020Z,1003.23
2017-11-04T11:04:37.023Z,1003.37
2017-11-04T11:05:37.026Z,1003.31
2017-11-04T11:06:37.030Z,1003.29
2017-11-04T11:07:37.031Z,1003.30
2017-11-04T11:08:37.036Z,1003.33
2017-11-04T11:09:37.061Z,1003.29
2017-11-04T11:10:37.040Z,1003.20
2017-11-04T11:11:37.041Z,1003.16
2017-11-04T11:12:37.041Z,1003.11
2017-11-04T11:13:37.042Z,1003.14
2017-11-04T11:14:37.045Z,1003.10
2017-11-04T11:15:37.047Z,1003.01
2017-11-04T11:16:37.053Z,1002.97
2017-11-04T11:17:37.068Z,1003.01
2017-11-04T11:18:37.059Z,1002.95
2017-11-04T11:19:37.059Z,1002.93
2017-11-04T11:20:37.060Z,1002.88
2017-11-04T11:21:37.062Z,1002.84
2017-11-04T11:22:37.064Z,1002.87
2017-11-04T11:23:37.065Z,1002.87
2017-11-04T11:24:37.061Z,1002.79
2017-11-04T11:25:37.064Z,1002.87
2017-11-04T11:26:37.064Z,1002.88
2017-11-04T11:27:37.065Z,1002.83
2017-11-04T11:28:37.065Z,1002.83
2017-11-04T11:29:37.067Z,1002.78
2017-11-04T11:30:37.065Z,1002.81
2017-11-04T11:31:37.066Z,1002.74
2017-11-04T11:32:37.070Z,1002.81
2017-11-04T11:33:37.072Z,1002.72
2017-11-04T11:34:37.070Z,1002.76
2017-11-04T11:35:37.069Z,1002.71
2017-11-04T11:36:37.068Z,1002.74
2017-11-04T11:37:37.068Z,1002.94
2017-11-04T11:38:37.068Z,1002.84
2017-11-04T11:39:37.067Z,1002.83
2017-11-04T11:40:37.061Z,1002.85
2017-11-04T11:41:37.061Z,1002.79
2017-11-04T11:42:37.062Z,1002.74
2017-11-04T11:43:37.058Z,1002.73
2017-11-04T11:44:37.084Z,1002.71
2017-11-04T11:45:37.057Z,1002.72
2017-11-04T11:46:37.056Z,1002.63
2017-11-04T11:47:37.055Z,1002.62
2017-11-04T11:48:37.059Z,1002.66
2017-11-04T11:49:37.058Z,1002.56
2017-11-04T11:50:37.057Z,1002.50
2017-11-04T11:51:37.056Z,1002.46
2017-11-04T11:52:37.054Z,1002.52
2017-11-04T11:53:37.055Z,1002.47
2017-11-04T11:54:37.054Z,1002.55
2017-11-04T11:55:37.049Z,1002.49
2017-11-04T11:56:37.045Z,1002.49
2017-11-04T11:57:37.044Z,1002.51
2017-11-04T11:58:37.101Z,1002.44
2017-11-04T11:59:37.043Z,1002.36
2017-11-04T12:00:37.039Z,1002.45
2017-11-04T12:01:37.050Z,1002.42
2017-11-04T12:02:37.037Z,1002.44
2017-11-04T12:03:37.035Z,1002.36
2017-11-04T12:04:37.037Z,1002.43
2017-11-04T12:05:37.037Z,1002.36